Time;durP1;ratioP1;P1;durP2;ratioP2;P2;SDS_P1;SDS_P2;PMS_P1;PMS_P2;Temp;Humidity;BMP_temperature;BMP_pressure;BME280_temperature;BME280_humidity;BME280_pressure;Samples;Min_cycle;Max_cycle;Signal;HPM_P1;HPM_P2
2022/04/24 00:01:32;;;;;;;4.40;3.50;;;;;;;14.78;nan;-24229.28;5011932;28;20286;-76
2022/04/24 00:03:57;;;;;;;5.60;3.25;;;;;;;14.75;nan;-24228.56;5011846;28;20561;-75
2022/04/24 00:06:24;;;;;;;8.77;2.95;;;;;;;14.89;nan;-24232.50;5011852;28;20172;-76
2022/04/24 00:08:49;;;;;;;4.28;3.10;;;;;;;14.40;nan;-24218.75;5012212;28;20172;-75
2022/04/24 00:11:16;;;;;;;4.00;2.60;;;;;;;14.76;nan;-24228.84;5010851;28;20195;-76
2022/04/24 00:13:42;;;;;;;5.50;2.88;;;;;;;14.67;nan;-24226.34;5012180;28;20183;-77
2022/04/24 00:16:08;;;;;;;6.72;3.00;;;;;;;14.93;nan;-24233.63;5012222;28;20183;-76
2022/04/24 00:18:38;;;;;;;5.40;2.80;;;;;;;14.51;nan;-24221.84;5011819;28;20724;-75
2022/04/24 00:21:05;;;;;;;6.07;2.85;;;;;;;14.73;nan;-24228.03;5011877;28;20180;-75
2022/04/24 00:23:31;;;;;;;5.68;3.03;;;;;;;14.67;nan;-24226.34;5011593;28;20214;-76
2022/04/24 00:25:57;;;;;;;6.47;2.97;;;;;;;14.72;nan;-24227.59;5012056;28;20184;-74
2022/04/24 00:28:22;;;;;;;5.93;3.05;;;;;;;14.16;nan;-24212.31;5011786;28;20165;-76
2022/04/24 00:30:48;;;;;;;8.90;3.08;;;;;;;14.19;nan;-24212.88;5010871;28;20619;-76
2022/04/24 00:33:14;;;;;;;7.68;2.80;;;;;;;14.63;nan;-24225.22;5011917;28;20227;-75
2022/04/24 00:35:39;;;;;;;6.50;2.88;;;;;;;14.32;nan;-24216.66;5010382;28;20182;-77
2022/04/24 00:38:05;;;;;;;7.85;3.28;;;;;;;14.42;nan;-24219.31;5011535;28;20176;-75
2022/04/24 00:40:30;;;;;;;5.75;3.22;;;;;;;14.06;nan;-24209.50;5011874;28;20172;-77
2022/04/24 00:42:56;;;;;;;6.72;2.97;;;;;;;14.18;nan;-24212.72;5012121;28;20199;-77
2022/04/24 00:45:21;;;;;;;6.72;3.05;;;;;;;14.27;nan;-24215.13;5011491;28;20172;-76
2022/04/24 00:47:47;;;;;;;5.43;3.58;;;;;;;14.24;nan;-24214.41;5011725;28;20242;-75
2022/04/24 00:50:12;;;;;;;6.95;3.45;;;;;;;13.80;nan;-24202.19;5013371;28;20174;-75
2022/04/24 00:52:38;;;;;;;4.32;2.95;;;;;;;13.92;nan;-24205.56;5014524;28;20274;-75
2022/04/24 00:55:05;;;;;;;4.30;3.22;;;;;;;13.62;nan;-24197.16;5015044;28;20175;-74
2022/04/24 00:57:31;;;;;;;6.38;3.33;;;;;;;13.58;nan;-24196.16;5015610;28;20172;-76
2022/04/24 00:59:56;;;;;;;7.03;3.67;;;;;;;13.96;nan;-24206.69;5014836;28;20168;-74
2022/04/24 01:02:22;;;;;;;8.23;3.60;;;;;;;14.01;nan;-24207.97;5013399;28;20211;-76
2022/04/24 01:04:47;;;;;;;6.55;3.33;;;;;;;13.67;nan;-24198.69;5014788;28;20246;-74
2022/04/24 01:07:13;;;;;;;5.72;3.03;;;;;;;13.96;nan;-24206.56;5015491;28;20183;-75
2022/04/24 01:09:39;;;;;;;5.50;3.47;;;;;;;13.75;nan;-24200.66;5014809;28;20168;-76
2022/04/24 01:12:06;;;;;;;4.68;3.40;;;;;;;13.59;nan;-24196.31;5014738;28;20187;-77
2022/04/24 01:14:32;;;;;;;8.00;3.97;;;;;;;13.50;nan;-24193.78;5014718;28;20199;-75
2022/04/24 01:16:58;;;;;;;8.10;3.25;;;;;;;13.76;nan;-24201.09;5014678;28;20262;-76
2022/04/24 01:19:25;;;;;;;6.85;4.05;;;;;;;13.68;nan;-24198.97;5014525;28;20251;-77
2022/04/24 01:21:51;;;;;;;5.45;3.58;;;;;;;13.48;nan;-24193.34;5012987;28;20298;-75
2022/04/24 01:24:21;;;;;;;8.70;4.00;;;;;;;13.62;nan;-24197.16;5014460;28;20256;-74
2022/04/24 01:26:47;;;;;;;5.45;3.85;;;;;;;13.55;nan;-24195.19;5014856;28;20179;-74
2022/04/24 01:29:14;;;;;;;8.93;3.90;;;;;;;13.36;nan;-24189.84;5014481;28;20251;-74
2022/04/24 01:31:40;;;;;;;7.53;3.90;;;;;;;13.04;nan;-24181.00;5014594;28;20180;-76
2022/04/24 01:34:05;;;;;;;7.43;3.85;;;;;;;13.12;nan;-24183.25;5014475;28;20156;-75
2022/04/24 01:36:31;;;;;;;9.63;4.28;;;;;;;13.41;nan;-24191.25;5014125;28;20179;-75
2022/04/24 01:38:56;;;;;;;7.72;3.78;;;;;;;13.00;nan;-24180.00;5014260;28;20698;-74
2022/04/24 01:41:21;;;;;;;8.40;4.20;;;;;;;13.10;nan;-24182.69;5014212;28;20204;-74
2022/04/24 01:43:48;;;;;;;6.55;4.40;;;;;;;12.83;nan;-24175.38;5014167;28;20673;-77
2022/04/24 01:46:14;;;;;;;6.90;4.30;;;;;;;12.52;nan;-24166.50;5014007;28;20229;-74
2022/04/24 01:48:39;;;;;;;6.20;3.80;;;;;;;12.54;nan;-24167.22;5014395;28;20254;-74
2022/04/24 01:51:07;;;;;;;8.88;4.43;;;;;;;12.53;nan;-24166.94;5013620;28;20281;-76
2022/04/24 01:53:33;;;;;;;9.07;4.10;;;;;;;12.56;nan;-24167.78;5013708;28;20224;-77
2022/04/24 01:56:00;;;;;;;8.05;4.60;;;;;;;12.72;nan;-24172.13;5014670;28;20231;-77
2022/04/24 01:58:26;;;;;;;7.60;4.60;;;;;;;12.26;nan;-24159.34;5013765;28;20183;-74
2022/04/24 02:00:53;;;;;;;7.43;3.95;;;;;;;12.67;nan;-24170.72;5012812;28;20173;-75
2022/04/24 02:03:20;;;;;;;5.25;4.07;;;;;;;12.17;nan;-24156.94;5013558;28;20686;-75
2022/04/24 02:05:46;;;;;;;13.98;4.38;;;;;;;12.07;nan;-24154.00;5013819;28;20209;-76
2022/04/24 02:08:12;;;;;;;9.75;4.70;;;;;;;12.16;nan;-24156.66;5012394;28;20188;-77
2022/04/24 02:10:38;;;;;;;10.43;4.70;;;;;;;11.91;nan;-24149.63;5013778;28;20226;-76
2022/04/24 02:13:04;;;;;;;9.50;4.63;;;;;;;12.30;nan;-24160.47;5012419;28;20183;-78
2022/04/24 02:15:29;;;;;;;8.85;4.63;;;;;;;12.08;nan;-24154.41;5013752;28;20176;-76
2022/04/24 02:17:56;;;;;;;20.90;5.72;;;;;;;11.90;nan;-24149.34;5013573;28;20637;-77
2022/04/24 02:20:23;;;;;;;11.90;5.03;;;;;;;11.89;nan;-24149.06;5013339;28;20172;-76
2022/04/24 02:22:49;;;;;;;9.57;5.22;;;;;;;11.46;nan;-24137.22;5013695;28;20212;-77
2022/04/24 02:25:15;;;;;;;11.38;5.65;;;;;;;11.53;nan;-24139.06;5013429;28;20180;-76
2022/04/24 02:27:41;;;;;;;10.13;6.00;;;;;;;11.27;nan;-24131.72;5012944;28;20176;-77
2022/04/24 02:30:07;;;;;;;10.35;6.00;;;;;;;11.48;nan;-24137.78;5012690;28;20264;-77
2022/04/24 02:32:33;;;;;;;9.48;6.05;;;;;;;11.52;nan;-24138.78;5013152;28;20184;-77
2022/04/24 02:34:59;;;;;;;10.95;5.28;;;;;;;11.86;nan;-24148.22;5013149;28;20184;-77
2022/04/24 02:37:25;;;;;;;12.07;6.07;;;;;;;11.94;nan;-24150.59;5013662;28;20626;-76
2022/04/24 02:39:51;;;;;;;14.80;6.25;;;;;;;11.41;nan;-24135.66;5013186;28;20207;-77
2022/04/24 02:42:17;;;;;;;14.98;7.75;;;;;;;11.28;nan;-24132.16;5012957;28;20241;-75
2022/04/24 02:44:42;;;;;;;21.77;10.00;;;;;;;11.56;nan;-24139.75;5012506;28;20279;-74
2022/04/24 02:47:07;;;;;;;16.85;9.68;;;;;;;11.39;nan;-24135.25;5012861;28;20198;-74
2022/04/24 02:49:33;;;;;;;19.50;8.88;;;;;;;11.44;nan;-24136.50;5012218;28;20569;-75
2022/04/24 02:51:58;;;;;;;14.88;8.98;;;;;;;11.59;nan;-24140.59;5012324;28;20543;-75
2022/04/24 02:54:24;;;;;;;14.90;7.65;;;;;;;11.33;nan;-24133.56;5012630;28;20223;-74
2022/04/24 02:56:49;;;;;;;14.30;7.60;;;;;;;11.49;nan;-24137.94;5012732;28;20184;-77
2022/04/24 02:59:16;;;;;;;11.98;7.38;;;;;;;10.92;nan;-24122.00;5012801;28;20197;-76
2022/04/24 03:01:42;;;;;;;19.00;9.18;;;;;;;10.81;nan;-24119.03;5012740;28;20725;-74
2022/04/24 03:04:07;;;;;;;26.98;10.68;;;;;;;11.13;nan;-24127.91;5012659;28;20160;-77
2022/04/24 03:06:33;;;;;;;25.25;10.23;;;;;;;10.86;nan;-24120.31;5012511;28;20186;-76
2022/04/24 03:08:58;;;;;;;11.95;7.95;;;;;;;11.12;nan;-24127.50;5012610;28;20183;-77
2022/04/24 03:11:24;;;;;;;15.38;8.43;;;;;;;10.82;nan;-24119.31;5012590;28;20562;-75
2022/04/24 03:13:49;;;;;;;12.32;7.13;;;;;;;11.20;nan;-24129.75;5012445;28;20180;-74
2022/04/24 03:16:14;;;;;;;9.85;6.80;;;;;;;10.84;nan;-24119.88;5012334;28;20171;-75
2022/04/24 03:18:40;;;;;;;12.80;7.30;;;;;;;11.28;nan;-24132.00;5012564;28;20576;-74
2022/04/24 03:21:06;;;;;;;14.02;6.45;;;;;;;11.42;nan;-24135.97;5012762;28;20714;-76
2022/04/24 03:23:31;;;;;;;9.27;6.18;;;;;;;10.93;nan;-24122.28;5012602;28;20176;-75
2022/04/24 03:25:57;;;;;;;11.60;6.43;;;;;;;10.82;nan;-24119.31;5012149;28;20234;-76
2022/04/24 03:28:22;;;;;;;10.45;5.40;;;;;;;10.96;nan;-24123.25;5012250;28;20634;-77
2022/04/24 03:30:48;;;;;;;10.88;6.72;;;;;;;10.95;nan;-24123.00;5012366;28;20172;-77
2022/04/24 03:33:13;;;;;;;12.30;6.97;;;;;;;10.96;nan;-24123.13;5012154;28;20480;-76
2022/04/24 03:35:39;;;;;;;9.85;6.82;;;;;;;10.79;nan;-24118.34;5011628;28;20242;-76
2022/04/24 03:38:04;;;;;;;9.95;6.25;;;;;;;10.95;nan;-24123.00;5012236;28;20184;-76
2022/04/24 03:40:30;;;;;;;9.50;6.10;;;;;;;11.10;nan;-24127.06;5012300;28;20191;-75
2022/04/24 03:42:55;;;;;;;10.68;6.25;;;;;;;11.55;nan;-24139.63;5011936;28;20208;-74
2022/04/24 03:45:20;;;;;;;10.20;6.40;;;;;;;11.64;nan;-24142.00;5011940;28;20595;-78
2022/04/24 03:47:49;;;;;;;9.65;6.05;;;;;;;12.36;nan;-24162.28;5012012;28;20172;-74
2022/04/24 03:50:14;;;;;;;10.10;6.55;;;;;;;12.52;nan;-24166.50;5012361;28;20180;-74
2022/04/24 03:52:40;;;;;;;12.30;6.60;;;;;;;13.37;nan;-24190.25;5012131;28;20610;-77
2022/04/24 03:55:06;;;;;;;10.80;6.22;;;;;;;13.67;nan;-24198.69;5011967;28;20176;-76
2022/04/24 03:57:33;;;;;;;8.38;5.10;;;;;;;14.41;nan;-24219.03;5012019;28;20635;-75
2022/04/24 03:59:58;;;;;;;9.70;5.72;;;;;;;15.01;nan;-24235.88;5011952;28;20180;-76
2022/04/24 04:02:23;;;;;;;11.27;5.35;;;;;;;16.06;nan;-24264.72;5011785;28;20196;-75
2022/04/24 04:04:49;;;;;;;7.55;4.80;;;;;;;17.08;nan;-24292.94;5012254;28;20175;-75
2022/04/24 04:07:14;;;;;;;11.90;5.47;;;;;;;17.68;nan;-24309.56;5012503;28;20648;-77
2022/04/24 04:09:40;;;;;;;9.90;4.55;;;;;;;18.36;nan;-24328.38;5012073;28;20514;-74
2022/04/24 04:12:06;;;;;;;8.73;5.20;;;;;;;18.61;nan;-24335.06;5011776;28;20725;-76
2022/04/24 04:14:32;;;;;;;8.27;4.60;;;;;;;19.22;nan;-24352.03;5011918;28;20169;-77
2022/04/24 04:16:57;;;;;;;7.68;4.38;;;;;;;19.89;nan;-24370.41;5011725;28;20242;-77
2022/04/24 04:19:23;;;;;;;9.32;4.90;;;;;;;20.25;nan;-24380.41;5011906;28;20626;-77
2022/04/24 04:21:49;;;;;;;10.40;4.30;;;;;;;20.04;nan;-24374.56;5011842;28;20223;-76
2022/04/24 04:24:14;;;;;;;7.63;4.43;;;;;;;19.91;nan;-24370.97;5012085;28;20212;-75
2022/04/24 04:26:40;;;;;;;6.20;4.15;;;;;;;20.33;nan;-24382.50;5015636;28;20663;-77
2022/04/24 04:29:06;;;;;;;7.03;4.00;;;;;;;20.50;nan;-24387.22;5015562;28;20183;-77
2022/04/24 04:31:31;;;;;;;5.55;4.30;;;;;;;19.87;nan;-24369.84;5015260;28;20708;-76
2022/04/24 04:33:57;;;;;;;6.50;4.18;;;;;;;20.05;nan;-24374.72;5015492;28;20195;-77
2022/04/24 04:36:22;;;;;;;6.40;4.32;;;;;;;20.05;nan;-24374.84;5015200;28;20571;-76
2022/04/24 04:38:48;;;;;;;6.25;4.03;;;;;;;19.82;nan;-24368.59;5015656;28;20177;-78
2022/04/24 04:41:13;;;;;;;7.63;4.18;;;;;;;19.03;nan;-24346.75;5014290;28;20674;-76
2022/04/24 04:43:38;;;;;;;6.93;4.07;;;;;;;18.77;nan;-24339.53;5015179;28;20172;-76
2022/04/24 04:46:04;;;;;;;5.15;3.80;;;;;;;18.46;nan;-24331.00;5015133;28;20176;-76
2022/04/24 04:48:30;;;;;;;5.53;3.72;;;;;;;18.71;nan;-24337.84;5013993;28;20176;-76
2022/04/24 04:50:55;;;;;;;11.45;4.13;;;;;;;18.46;nan;-24331.16;5015264;28;20172;-75
2022/04/24 04:53:22;;;;;;;5.40;3.60;;;;;;;18.46;nan;-24331.16;5015131;28;20219;-77
2022/04/24 04:55:48;;;;;;;11.60;4.03;;;;;;;17.79;nan;-24312.47;5015005;28;20262;-76
2022/04/24 04:58:13;;;;;;;5.28;4.03;;;;;;;17.55;nan;-24306.06;5014922;28;20268;-78
2022/04/24 05:00:39;;;;;;;5.63;3.85;;;;;;;17.18;nan;-24295.88;5013490;28;20215;-75
2022/04/24 05:03:05;;;;;;;8.35;4.40;;;;;;;17.48;nan;-24303.97;5013639;28;20230;-78
2022/04/24 05:05:31;;;;;;;5.93;4.15;;;;;;;17.45;nan;-24303.13;5014908;28;20187;-76
2022/04/24 05:07:57;;;;;;;7.55;4.45;;;;;;;17.33;nan;-24299.78;5014953;28;20168;-77
2022/04/24 05:10:22;;;;;;;8.18;4.65;;;;;;;17.18;nan;-24295.72;5014805;28;20188;-77
2022/04/24 05:12:47;;;;;;;7.40;4.30;;;;;;;17.43;nan;-24302.72;5014729;28;20172;-77
2022/04/24 05:15:14;;;;;;;7.13;4.05;;;;;;;17.16;nan;-24295.31;5014354;28;20600;-78
2022/04/24 05:17:41;;;;;;;9.25;4.63;;;;;;;17.12;nan;-24294.06;5014784;28;20180;-76
2022/04/24 05:20:10;;;;;;;7.47;4.75;;;;;;;17.37;nan;-24300.91;5014694;28;20604;-77
2022/04/24 05:22:36;;;;;;;7.60;4.60;;;;;;;17.25;nan;-24297.56;5013196;28;20207;-77
2022/04/24 05:25:02;;;;;;;10.10;5.50;;;;;;;17.17;nan;-24295.59;5014377;28;20176;-75
2022/04/24 05:27:27;;;;;;;8.35;4.78;;;;;;;16.99;nan;-24290.56;5014705;28;20230;-78
2022/04/24 05:29:53;;;;;;;8.90;5.13;;;;;;;17.39;nan;-24301.59;5014212;28;20172;-76
2022/04/24 05:32:18;;;;;;;9.63;5.20;;;;;;;17.17;nan;-24295.59;5014094;28;20218;-78
2022/04/24 05:34:44;;;;;;;9.90;5.28;;;;;;;17.16;nan;-24295.16;5014356;28;20164;-76
2022/04/24 05:37:11;;;;;;;8.90;4.47;;;;;;;17.36;nan;-24300.63;5014178;28;20264;-75
2022/04/24 05:39:36;;;;;;;7.80;5.30;;;;;;;17.66;nan;-24309.00;5012714;28;20263;-78
2022/04/24 05:42:02;;;;;;;9.00;5.10;;;;;;;17.81;nan;-24313.19;5012852;28;20219;-77
2022/04/24 05:44:28;;;;;;;11.05;5.10;;;;;;;17.56;nan;-24306.19;5013916;28;20623;-76
2022/04/24 05:46:53;;;;;;;8.85;5.32;;;;;;;17.46;nan;-24303.56;5014352;28;20175;-79
2022/04/24 05:49:19;;;;;;;9.45;4.93;;;;;;;17.38;nan;-24301.31;5014082;28;20260;-76
2022/04/24 05:51:45;;;;;;;7.47;4.35;;;;;;;17.49;nan;-24304.25;5014157;28;20188;-76
2022/04/24 05:54:11;;;;;;;11.25;4.90;;;;;;;17.57;nan;-24306.63;5028966;28;20227;-76
2022/04/24 05:56:38;;;;;;;8.52;4.40;;;;;;;17.41;nan;-24302.16;5014275;28;20260;-77
2022/04/24 05:59:04;;;;;;;7.13;5.13;;;;;;;17.48;nan;-24303.97;5013980;28;20510;-77
2022/04/24 06:01:29;;;;;;;8.70;4.70;;;;;;;17.86;nan;-24314.44;5013947;28;20202;-77
2022/04/24 06:03:54;;;;;;;9.63;4.93;;;;;;;17.71;nan;-24310.25;5013568;28;20600;-75
2022/04/24 06:06:20;;;;;;;5.88;4.22;;;;;;;18.13;nan;-24321.81;5013468;28;20176;-77
2022/04/24 06:08:45;;;;;;;7.00;4.88;;;;;;;17.96;nan;-24317.22;5013600;28;20176;-76
2022/04/24 06:11:11;;;;;;;7.60;4.43;;;;;;;17.71;nan;-24310.38;5013339;28;20290;-77
2022/04/24 06:13:36;;;;;;;7.80;4.50;;;;;;;17.96;nan;-24317.22;5012980;28;20210;-75
2022/04/24 06:16:02;;;;;;;6.63;4.10;;;;;;;18.10;nan;-24321.25;5013709;28;20234;-75
2022/04/24 06:18:28;;;;;;;9.00;4.40;;;;;;;18.28;nan;-24326.13;5013338;28;20591;-77
2022/04/24 06:20:54;;;;;;;8.93;4.57;;;;;;;18.18;nan;-24323.22;5012449;28;20183;-77
2022/04/24 06:23:19;;;;;;;7.30;4.65;;;;;;;18.08;nan;-24320.56;5013368;28;20200;-76
2022/04/24 06:25:45;;;;;;;7.85;5.03;;;;;;;17.92;nan;-24316.09;5013131;28;20180;-75
2022/04/24 06:28:11;;;;;;;8.88;4.90;;;;;;;18.30;nan;-24326.56;5012993;28;20245;-77
2022/04/24 06:30:40;;;;;;;8.00;5.05;;;;;;;18.48;nan;-24331.56;5013445;28;20194;-75
2022/04/24 06:33:12;;;;;;;9.48;5.15;;;;;;;18.34;nan;-24327.81;5012958;28;20569;-77
2022/04/24 06:35:38;;;;;;;8.77;5.05;;;;;;;18.26;nan;-24325.59;5013463;28;20233;-75
2022/04/24 06:38:04;;;;;;;8.80;4.75;;;;;;;18.38;nan;-24328.94;5012990;28;20181;-78
2022/04/24 06:40:30;;;;;;;6.68;4.60;;;;;;;18.38;nan;-24328.78;5013202;28;20168;-75
2022/04/24 06:43:04;;;;;;;5.65;4.65;;;;;;;18.20;nan;-24323.91;5012647;28;20208;-75
2022/04/24 06:45:35;;;;;;;8.48;4.50;;;;;;;18.93;nan;-24343.97;5013132;28;20168;-76
2022/04/24 06:48:06;;;;;;;15.02;4.97;;;;;;;18.92;nan;-24343.69;5012622;28;20183;-77
2022/04/24 06:50:32;;;;;;;8.95;4.40;;;;;;;18.81;nan;-24340.78;5013019;28;20227;-76
2022/04/24 06:53:05;;;;;;;8.65;4.60;;;;;;;18.25;nan;-24325.31;5012349;28;20223;-76
2022/04/24 06:55:32;;;;;;;6.20;4.43;;;;;;;18.57;nan;-24334.09;5012961;28;20180;-75
2022/04/24 06:57:58;;;;;;;6.30;4.45;;;;;;;18.48;nan;-24331.56;5012656;28;20257;-77
2022/04/24 07:00:26;;;;;;;7.82;4.60;;;;;;;19.18;nan;-24350.78;5012556;28;20184;-77
2022/04/24 07:02:51;;;;;;;7.47;4.15;;;;;;;19.14;nan;-24349.81;5012574;28;20210;-75
2022/04/24 07:05:20;;;;;;;8.23;4.03;;;;;;;18.58;nan;-24334.38;5012431;28;20168;-75
2022/04/24 07:07:45;;;;;;;11.50;4.45;;;;;;;18.68;nan;-24337.16;5012651;28;20551;-75
2022/04/24 07:10:11;;;;;;;6.00;4.03;;;;;;;19.00;nan;-24345.78;5012718;28;20651;-78
2022/04/24 07:12:45;;;;;;;7.65;3.95;;;;;;;19.19;nan;-24351.22;5012501;28;20259;-76
2022/04/24 07:15:11;;;;;;;7.70;4.28;;;;;;;19.10;nan;-24348.69;5012369;28;20174;-76
2022/04/24 07:17:36;;;;;;;5.85;3.80;;;;;;;19.60;nan;-24362.34;5012513;28;20176;-75
2022/04/24 07:20:02;;;;;;;6.90;4.30;;;;;;;19.58;nan;-24361.91;5012188;28;20676;-75
2022/04/24 07:22:28;;;;;;;5.82;3.75;;;;;;;19.63;nan;-24363.31;5012369;28;20207;-76
2022/04/24 07:24:53;;;;;;;6.32;3.90;;;;;;;19.90;nan;-24370.69;5012712;28;20168;-76
2022/04/24 07:27:20;;;;;;;8.10;4.15;;;;;;;19.69;nan;-24364.97;5012012;28;20270;-77
2022/04/24 07:29:45;;;;;;;8.20;4.38;;;;;;;20.12;nan;-24376.66;5012214;28;20208;-75
2022/04/24 07:32:11;;;;;;;5.72;4.13;;;;;;;20.22;nan;-24379.44;5012201;28;20235;-77
2022/04/24 07:34:36;;;;;;;7.18;3.88;;;;;;;20.18;nan;-24378.31;5011919;28;20172;-77
2022/04/24 07:37:02;;;;;;;10.23;3.85;;;;;;;19.67;nan;-24364.28;5012113;28;20164;-75
2022/04/24 07:39:30;;;;;;;9.80;4.18;;;;;;;19.50;nan;-24359.69;5011262;28;20743;-77
2022/04/24 07:41:56;;;;;;;6.82;3.80;;;;;;;19.56;nan;-24361.38;5012262;28;20290;-76
2022/04/24 07:44:21;;;;;;;6.70;3.97;;;;;;;20.11;nan;-24376.38;5012017;28;20590;-77
2022/04/24 07:46:47;;;;;;;6.78;3.70;;;;;;;20.40;nan;-24384.44;5012101;28;20273;-77
2022/04/24 07:49:12;;;;;;;5.45;3.65;;;;;;;20.55;nan;-24388.47;5011932;28;20175;-75
2022/04/24 07:51:37;;;;;;;9.82;4.47;;;;;;;20.45;nan;-24385.69;5011726;28;20203;-77
2022/04/24 07:54:03;;;;;;;5.85;4.00;;;;;;;20.69;nan;-24392.34;5010592;28;20227;-76
2022/04/24 07:56:28;;;;;;;9.23;4.13;;;;;;;20.83;nan;-24396.22;5012460;28;20168;-75
2022/04/24 07:58:54;;;;;;;9.05;3.75;;;;;;;21.06;nan;-24402.59;5011650;28;20202;-77
2022/04/24 08:01:19;;;;;;;4.63;3.65;;;;;;;21.26;nan;-24408.03;5015784;28;20171;-76
2022/04/24 08:03:44;;;;;;;7.68;3.78;;;;;;;21.04;nan;-24401.91;5014513;28;20584;-78
2022/04/24 08:06:10;;;;;;;6.35;3.50;;;;;;;21.27;nan;-24408.16;5015535;28;20168;-78
2022/04/24 08:08:35;;;;;;;6.07;3.65;;;;;;;21.26;nan;-24407.88;5013931;28;20245;-76
2022/04/24 08:11:01;;;;;;;9.10;4.18;;;;;;;21.47;nan;-24413.84;5015517;28;20208;-75
2022/04/24 08:13:27;;;;;;;5.25;3.50;;;;;;;21.41;nan;-24412.19;5015092;28;20192;-76
2022/04/24 08:15:53;;;;;;;7.72;3.88;;;;;;;21.11;nan;-24404.00;5016020;28;20180;-77
2022/04/24 08:18:19;;;;;;;5.43;3.58;;;;;;;21.32;nan;-24409.53;5015020;28;20191;-76
2022/04/24 08:20:45;;;;;;;6.13;3.63;;;;;;;20.75;nan;-24394.00;5007065;28;20686;-77
2022/04/24 08:23:11;;;;;;;7.10;3.92;;;;;;;20.98;nan;-24400.38;5014821;28;20687;-76
2022/04/24 08:25:38;;;;;;;8.30;3.72;;;;;;;20.90;nan;-24398.03;5016212;28;20670;-77
2022/04/24 08:28:06;;;;;;;8.27;4.03;;;;;;;20.49;nan;-24386.94;5013863;28;20250;-76
2022/04/24 08:30:34;;;;;;;6.57;3.92;;;;;;;21.16;nan;-24405.25;5015559;28;20274;-76
2022/04/24 08:33:00;;;;;;;7.40;3.90;;;;;;;21.34;nan;-24410.25;5014755;28;20263;-77
2022/04/24 08:35:25;;;;;;;8.57;3.80;;;;;;;21.49;nan;-24414.25;5015391;28;20188;-76
2022/04/24 08:37:51;;;;;;;8.77;3.78;;;;;;;21.98;nan;-24427.84;5014631;28;20651;-75
2022/04/24 08:40:18;;;;;;;5.65;3.70;;;;;;;22.13;nan;-24431.72;5015461;28;20176;-76
2022/04/24 08:42:44;;;;;;;5.30;3.58;;;;;;;21.88;nan;-24424.91;5014463;28;20650;-77
2022/04/24 08:45:12;;;;;;;4.57;3.88;;;;;;;22.18;nan;-24433.09;5014958;28;20556;-76
2022/04/24 08:47:37;;;;;;;9.45;4.30;;;;;;;21.69;nan;-24419.78;5014422;28;20198;-76
2022/04/24 08:50:04;;;;;;;6.72;4.18;;;;;;;21.80;nan;-24422.72;5014994;28;20180;-77
2022/04/24 08:52:30;;;;;;;7.07;4.43;;;;;;;22.12;nan;-24431.44;5014769;28;20203;-77
2022/04/24 08:54:58;;;;;;;10.02;4.28;;;;;;;22.07;nan;-24430.03;5011979;28;20234;-76
2022/04/24 08:57:26;;;;;;;8.82;3.97;;;;;;;22.12;nan;-24431.56;5013173;28;20186;-77
2022/04/24 08:59:55;;;;;;;7.80;4.78;;;;;;;21.70;nan;-24419.94;5013744;28;20180;-77
2022/04/24 09:02:21;;;;;;;10.73;3.78;;;;;;;22.00;nan;-24428.38;5012770;28;20222;-76
2022/04/24 09:04:47;;;;;;;8.95;3.95;;;;;;;22.03;nan;-24429.22;5028674;28;20215;-78
2022/04/24 09:07:17;;;;;;;7.25;3.95;;;;;;;22.16;nan;-24432.53;5012847;28;20732;-75
2022/04/24 09:09:48;;;;;;;6.45;4.07;;;;;;;22.27;nan;-24435.59;5013276;28;20218;-76
2022/04/24 09:12:15;;;;;;;10.02;4.97;;;;;;;22.76;nan;-24449.16;5013139;28;20640;-78
2022/04/24 09:14:46;;;;;;;7.40;4.70;;;;;;;22.76;nan;-24449.16;5013028;28;20188;-77
2022/04/24 09:17:22;;;;;;;7.05;4.10;;;;;;;22.69;nan;-24447.06;5013289;28;20183;-76
2022/04/24 09:19:49;;;;;;;6.38;3.95;;;;;;;22.33;nan;-24437.25;5013506;28;20206;-78
2022/04/24 09:22:15;;;;;;;7.57;4.57;;;;;;;22.22;nan;-24434.19;5013305;28;20200;-77
2022/04/24 09:24:52;;;;;;;7.13;4.20;;;;;;;22.62;nan;-24445.13;5012798;28;20188;-77
2022/04/24 09:27:30;;;;;;;8.07;4.30;;;;;;;21.96;nan;-24427.28;5012779;28;20647;-77
2022/04/24 09:30:00;;;;;;;8.15;4.30;;;;;;;21.82;nan;-24423.25;5012942;28;20206;-75
2022/04/24 09:32:31;;;;;;;9.75;4.30;;;;;;;21.95;nan;-24427.00;5012771;28;20184;-78
2022/04/24 09:34:57;;;;;;;10.32;4.35;;;;;;;21.99;nan;-24427.97;5011333;28;20184;-77
2022/04/24 09:37:24;;;;;;;9.85;4.10;;;;;;;22.48;nan;-24441.53;5012327;28;20572;-77
2022/04/24 09:39:52;;;;;;;7.80;4.40;;;;;;;22.67;nan;-24446.66;5013215;28;20263;-77
2022/04/24 09:42:19;;;;;;;9.25;4.20;;;;;;;22.62;nan;-24445.25;5012754;28;20602;-77
2022/04/24 09:44:51;;;;;;;9.25;4.43;;;;;;;22.40;nan;-24439.19;5011981;28;20187;-76
2022/04/24 09:47:22;;;;;;;8.15;4.22;;;;;;;22.55;nan;-24443.19;5012569;28;20188;-77
2022/04/24 09:49:50;;;;;;;12.93;4.78;;;;;;;22.68;nan;-24446.78;5012945;28;20215;-76
2022/04/24 09:52:24;;;;;;;7.95;4.30;;;;;;;22.89;nan;-24452.72;5012316;28;20287;-78
2022/04/24 09:54:52;;;;;;;7.72;4.60;;;;;;;22.67;nan;-24446.50;5022385;28;125616;-76
2022/04/24 09:57:19;;;;;;;9.68;4.60;;;;;;;22.66;nan;-24446.25;5013542;28;20195;-75
2022/04/24 09:59:48;;;;;;;9.00;4.53;;;;;;;23.04;nan;-24456.59;5044661;28;20179;-78
2022/04/24 10:02:17;;;;;;;7.90;4.20;;;;;;;22.82;nan;-24450.66;5013697;28;20266;-78
2022/04/24 10:04:44;;;;;;;11.55;4.93;;;;;;;22.65;nan;-24446.09;5013277;28;20242;-77
2022/04/24 10:07:11;;;;;;;10.85;4.57;;;;;;;22.37;nan;-24438.50;5013853;28;20191;-76
2022/04/24 10:09:40;;;;;;;8.57;4.72;;;;;;;23.03;nan;-24456.34;5011049;28;20180;-77
2022/04/24 10:12:18;;;;;;;11.52;4.55;;;;;;;22.82;nan;-24450.81;5012570;28;20180;-76
2022/04/24 10:14:51;;;;;;;11.70;4.60;;;;;;;23.29;nan;-24463.50;5013209;28;20641;-74
2022/04/24 10:17:44;;;;;;;8.07;4.35;;;;;;;23.18;nan;-24460.63;5013212;28;20713;-75
2022/04/24 10:20:16;;;;;;;9.15;4.95;;;;;;;22.96;nan;-24454.41;5013517;28;20200;-76
2022/04/24 10:22:47;;;;;;;9.85;4.57;;;;;;;23.21;nan;-24461.44;5012481;28;20208;-76
2022/04/24 10:25:17;;;;;;;10.95;4.57;;;;;;;23.34;nan;-24465.03;5013540;28;20183;-75
2022/04/24 10:27:50;;;;;;;11.02;4.43;;;;;;;23.55;nan;-24470.69;5013167;28;20703;-76
2022/04/24 10:30:23;;;;;;;9.02;4.50;;;;;;;23.82;nan;-24478.00;5013469;28;20160;-77
2022/04/24 10:33:10;;;;;;;9.65;4.18;;;;;;;23.65;nan;-24473.47;5013671;28;20631;-76
2022/04/24 10:35:46;;;;;;;7.00;4.20;;;;;;;23.84;nan;-24478.44;5013252;28;20179;-77
2022/04/24 10:38:11;;;;;;;7.93;4.22;;;;;;;23.51;nan;-24469.47;5013089;28;20170;-77
2022/04/24 10:40:39;;;;;;;12.73;4.55;;;;;;;23.72;nan;-24475.38;5013162;28;20207;-78
2022/04/24 10:43:07;;;;;;;11.18;4.57;;;;;;;23.63;nan;-24472.78;5012897;28;20241;-78
2022/04/24 10:45:44;;;;;;;8.57;3.67;;;;;;;23.49;nan;-24468.91;5012945;28;20204;-77
2022/04/24 10:48:17;;;;;;;8.65;3.92;;;;;;;23.62;nan;-24472.63;5013107;28;20247;-76
2022/04/24 10:50:47;;;;;;;8.60;3.72;;;;;;;23.58;nan;-24471.53;5011179;28;20180;-77
2022/04/24 10:53:13;;;;;;;12.15;3.58;;;;;;;23.48;nan;-24468.78;5012851;28;20216;-76
2022/04/24 10:55:38;;;;;;;6.63;3.65;;;;;;;23.56;nan;-24470.97;5013029;28;20183;-76
2022/04/24 10:58:05;;;;;;;8.07;3.90;;;;;;;23.79;nan;-24477.19;5012942;28;20172;-76
2022/04/24 11:00:34;;;;;;;14.27;3.80;;;;;;;23.84;nan;-24478.56;5013048;28;20562;-77
2022/04/24 11:03:13;;;;;;;8.38;3.72;;;;;;;24.36;nan;-24492.78;5012339;28;20195;-77
2022/04/24 11:05:41;;;;;;;7.13;3.40;;;;;;;24.65;nan;-24500.75;5013005;28;20175;-78
2022/04/24 11:08:08;;;;;;;14.73;4.20;;;;;;;24.74;nan;-24503.09;5012770;28;20172;-75
2022/04/24 11:10:43;;;;;;;10.65;3.55;;;;;;;24.79;nan;-24504.34;5012727;28;20176;-77
2022/04/24 11:13:11;;;;;;;6.05;3.25;;;;;;;24.91;nan;-24507.78;5012990;28;20634;-77
2022/04/24 11:15:42;;;;;;;12.18;3.83;;;;;;;24.55;nan;-24497.88;5012452;28;20183;-77
2022/04/24 11:18:20;;;;;;;10.85;3.80;;;;;;;24.70;nan;-24501.88;5012802;28;20200;-77
2022/04/24 11:21:01;;;;;;;15.25;3.90;;;;;;;24.35;nan;-24492.34;5012663;28;20180;-77
2022/04/24 11:23:29;;;;;;;14.90;3.80;;;;;;;24.38;nan;-24493.31;5012436;28;20254;-76
2022/04/24 11:25:59;;;;;;;11.70;3.60;;;;;;;24.58;nan;-24498.84;5012282;28;20226;-77
2022/04/24 11:28:41;;;;;;;8.80;3.70;;;;;;;24.56;nan;-24498.28;5012734;28;20172;-76
2022/04/24 11:31:10;;;;;;;8.45;3.20;;;;;;;24.43;nan;-24494.69;5012428;28;20632;-74
2022/04/24 11:33:37;;;;;;;7.03;3.50;;;;;;;24.43;nan;-24494.69;5012319;28;20274;-74
2022/04/24 11:36:04;;;;;;;11.77;3.65;;;;;;;24.06;nan;-24484.50;5012660;28;20207;-76
2022/04/24 11:38:30;;;;;;;10.63;3.40;;;;;;;24.30;nan;-24491.13;5012211;28;20172;-76